sensor_id;sensor_type;location;lat;lon;timestamp;temperature;humidity
7700;DHT22;3892;47.794;19.126;2023-02-27T00:00:21;10.60;25.10
7700;DHT22;3892;47.794;19.126;2023-02-27T00:02:50;10.60;25.10
7700;DHT22;3892;47.794;19.126;2023-02-27T00:05:19;10.70;25.30
7700;DHT22;3892;47.794;19.126;2023-02-27T00:07:47;10.60;25.20
7700;DHT22;3892;47.794;19.126;2023-02-27T00:10:14;10.60;25.00
7700;DHT22;3892;47.794;19.126;2023-02-27T00:12:42;10.60;25.00
7700;DHT22;3892;47.794;19.126;2023-02-27T00:15:11;10.60;25.10
7700;DHT22;3892;47.794;19.126;2023-02-27T00:17:39;10.60;25.10
7700;DHT22;3892;47.794;19.126;2023-02-27T00:20:09;10.60;25.10
7700;DHT22;3892;47.794;19.126;2023-02-27T00:22:37;10.60;25.10
7700;DHT22;3892;47.794;19.126;2023-02-27T00:25:05;10.60;25.00
7700;DHT22;3892;47.794;19.126;2023-02-27T00:27:33;10.60;25.00
7700;DHT22;3892;47.794;19.126;2023-02-27T00:30:01;10.50;24.90
7700;DHT22;3892;47.794;19.126;2023-02-27T00:32:29;10.40;24.80
7700;DHT22;3892;47.794;19.126;2023-02-27T00:34:56;10.30;25.00
7700;DHT22;3892;47.794;19.126;2023-02-27T00:37:24;10.20;25.20
7700;DHT22;3892;47.794;19.126;2023-02-27T00:39:52;10.20;25.20
7700;DHT22;3892;47.794;19.126;2023-02-27T00:42:19;10.20;25.40
7700;DHT22;3892;47.794;19.126;2023-02-27T00:44:46;10.10;25.20
7700;DHT22;3892;47.794;19.126;2023-02-27T00:47:13;10.20;25.20
7700;DHT22;3892;47.794;19.126;2023-02-27T00:49:40;10.10;25.30
7700;DHT22;3892;47.794;19.126;2023-02-27T00:52:07;10.20;25.40
7700;DHT22;3892;47.794;19.126;2023-02-27T00:54:36;10.20;25.30
7700;DHT22;3892;47.794;19.126;2023-02-27T00:57:03;10.20;25.40
7700;DHT22;3892;47.794;19.126;2023-02-27T00:59:31;10.30;25.50
7700;DHT22;3892;47.794;19.126;2023-02-27T01:01:58;10.30;25.60
7700;DHT22;3892;47.794;19.126;2023-02-27T01:04:27;10.20;25.10
7700;DHT22;3892;47.794;19.126;2023-02-27T01:06:54;10.20;25.20
7700;DHT22;3892;47.794;19.126;2023-02-27T01:09:21;10.20;25.20
7700;DHT22;3892;47.794;19.126;2023-02-27T01:11:52;10.30;25.20
7700;DHT22;3892;47.794;19.126;2023-02-27T01:14:20;10.20;25.10
7700;DHT22;3892;47.794;19.126;2023-02-27T01:16:48;10.20;25.30
7700;DHT22;3892;47.794;19.126;2023-02-27T01:19:15;10.20;25.20
7700;DHT22;3892;47.794;19.126;2023-02-27T01:21:42;10.20;25.40
7700;DHT22;3892;47.794;19.126;2023-02-27T01:24:10;10.20;25.50
7700;DHT22;3892;47.794;19.126;2023-02-27T01:26:37;10.20;25.20
7700;DHT22;3892;47.794;19.126;2023-02-27T01:29:06;10.30;25.00
7700;DHT22;3892;47.794;19.126;2023-02-27T01:31:33;10.30;25.00
7700;DHT22;3892;47.794;19.126;2023-02-27T01:34:00;10.30;24.90
7700;DHT22;3892;47.794;19.126;2023-02-27T01:36:27;10.40;24.90
7700;DHT22;3892;47.794;19.126;2023-02-27T01:38:54;10.40;25.10
7700;DHT22;3892;47.794;19.126;2023-02-27T01:41:21;10.40;25.10
7700;DHT22;3892;47.794;19.126;2023-02-27T01:43:54;10.40;25.20
7700;DHT22;3892;47.794;19.126;2023-02-27T01:46:23;10.40;25.50
7700;DHT22;3892;47.794;19.126;2023-02-27T01:48:53;10.50;25.80
7700;DHT22;3892;47.794;19.126;2023-02-27T01:51:26;10.50;25.90
7700;DHT22;3892;47.794;19.126;2023-02-27T01:53:56;10.50;26.00
7700;DHT22;3892;47.794;19.126;2023-02-27T01:56:25;10.50;25.90
7700;DHT22;3892;47.794;19.126;2023-02-27T01:58:57;10.50;26.00
7700;DHT22;3892;47.794;19.126;2023-02-27T02:01:26;10.50;26.10
7700;DHT22;3892;47.794;19.126;2023-02-27T02:03:57;10.40;26.10
7700;DHT22;3892;47.794;19.126;2023-02-27T02:06:27;10.40;26.20
7700;DHT22;3892;47.794;19.126;2023-02-27T02:08:57;10.50;26.30
7700;DHT22;3892;47.794;19.126;2023-02-27T02:11:25;10.50;26.10
7700;DHT22;3892;47.794;19.126;2023-02-27T02:13:57;10.40;26.20
7700;DHT22;3892;47.794;19.126;2023-02-27T02:16:43;10.40;26.30
7700;DHT22;3892;47.794;19.126;2023-02-27T02:19:49;10.40;26.60
7700;DHT22;3892;47.794;19.126;2023-02-27T02:22:49;10.40;26.70
7700;DHT22;3892;47.794;19.126;2023-02-27T02:28:41;10.40;26.30
7700;DHT22;3892;47.794;19.126;2023-02-27T02:31:25;10.40;26.30
7700;DHT22;3892;47.794;19.126;2023-02-27T02:34:31;10.40;26.10
7700;DHT22;3892;47.794;19.126;2023-02-27T02:37:42;10.40;25.90
7700;DHT22;3892;47.794;19.126;2023-02-27T02:40:22;10.40;25.80
7700;DHT22;3892;47.794;19.126;2023-02-27T02:43:00;10.40;24.90
7700;DHT22;3892;47.794;19.126;2023-02-27T02:45:33;10.40;24.70
7700;DHT22;3892;47.794;19.126;2023-02-27T02:48:10;10.40;24.80
7700;DHT22;3892;47.794;19.126;2023-02-27T02:50:43;10.40;24.80
7700;DHT22;3892;47.794;19.126;2023-02-27T02:53:24;10.50;24.70
7700;DHT22;3892;47.794;19.126;2023-02-27T02:56:01;10.50;24.60
7700;DHT22;3892;47.794;19.126;2023-02-27T02:58:34;10.50;24.60
7700;DHT22;3892;47.794;19.126;2023-02-27T03:01:09;10.50;24.60
7700;DHT22;3892;47.794;19.126;2023-02-27T03:03:43;10.50;24.80
7700;DHT22;3892;47.794;19.126;2023-02-27T03:06:17;10.60;25.20
7700;DHT22;3892;47.794;19.126;2023-02-27T03:08:49;10.40;24.70
7700;DHT22;3892;47.794;19.126;2023-02-27T03:11:19;10.10;25.00
7700;DHT22;3892;47.794;19.126;2023-02-27T03:13:53;10.00;25.20
7700;DHT22;3892;47.794;19.126;2023-02-27T03:16:28;9.80;26.00
7700;DHT22;3892;47.794;19.126;2023-02-27T03:19:07;9.90;26.30
7700;DHT22;3892;47.794;19.126;2023-02-27T03:21:40;9.90;26.30
7700;DHT22;3892;47.794;19.126;2023-02-27T03:24:13;10.00;25.70
7700;DHT22;3892;47.794;19.126;2023-02-27T03:26:46;10.10;25.90
7700;DHT22;3892;47.794;19.126;2023-02-27T03:29:20;10.00;26.10
7700;DHT22;3892;47.794;19.126;2023-02-27T03:31:53;10.00;26.30
7700;DHT22;3892;47.794;19.126;2023-02-27T03:34:26;10.00;26.20
7700;DHT22;3892;47.794;19.126;2023-02-27T03:37:01;9.90;26.00
7700;DHT22;3892;47.794;19.126;2023-02-27T03:39:36;10.00;25.40
7700;DHT22;3892;47.794;19.126;2023-02-27T03:42:13;10.00;24.90
7700;DHT22;3892;47.794;19.126;2023-02-27T03:45:04;10.10;25.00
7700;DHT22;3892;47.794;19.126;2023-02-27T03:47:34;10.10;25.00
7700;DHT22;3892;47.794;19.126;2023-02-27T03:50:02;10.20;25.10
7700;DHT22;3892;47.794;19.126;2023-02-27T03:52:29;10.20;24.90
7700;DHT22;3892;47.794;19.126;2023-02-27T03:54:59;10.20;24.70
7700;DHT22;3892;47.794;19.126;2023-02-27T03:57:30;10.20;24.80
7700;DHT22;3892;47.794;19.126;2023-02-27T03:59:57;10.30;25.00
7700;DHT22;3892;47.794;19.126;2023-02-27T04:02:25;10.10;25.20
7700;DHT22;3892;47.794;19.126;2023-02-27T04:04:52;10.00;26.00
7700;DHT22;3892;47.794;19.126;2023-02-27T04:07:45;10.00;25.80
7700;DHT22;3892;47.794;19.126;2023-02-27T04:10:37;10.00;25.90
7700;DHT22;3892;47.794;19.126;2023-02-27T04:19:30;10.10;24.60
7700;DHT22;3892;47.794;19.126;2023-02-27T04:22:07;10.00;25.50
7700;DHT22;3892;47.794;19.126;2023-02-27T04:24:47;9.90;26.60
7700;DHT22;3892;47.794;19.126;2023-02-27T04:27:23;9.90;26.60
7700;DHT22;3892;47.794;19.126;2023-02-27T04:29:56;9.70;26.90
7700;DHT22;3892;47.794;19.126;2023-02-27T04:32:32;9.70;27.00
7700;DHT22;3892;47.794;19.126;2023-02-27T04:35:05;9.80;27.00
7700;DHT22;3892;47.794;19.126;2023-02-27T04:37:39;9.70;27.00
7700;DHT22;3892;47.794;19.126;2023-02-27T04:40:10;9.60;27.10
7700;DHT22;3892;47.794;19.126;2023-02-27T04:42:41;9.60;26.80
7700;DHT22;3892;47.794;19.126;2023-02-27T04:45:14;9.60;26.30
7700;DHT22;3892;47.794;19.126;2023-02-27T04:47:46;9.70;26.60
7700;DHT22;3892;47.794;19.126;2023-02-27T04:50:19;9.80;26.70
7700;DHT22;3892;47.794;19.126;2023-02-27T04:52:52;9.80;26.30
7700;DHT22;3892;47.794;19.126;2023-02-27T04:55:22;9.90;26.10
7700;DHT22;3892;47.794;19.126;2023-02-27T04:57:54;9.90;26.00
7700;DHT22;3892;47.794;19.126;2023-02-27T05:00:26;9.90;26.00
7700;DHT22;3892;47.794;19.126;2023-02-27T05:02:59;9.80;26.00
7700;DHT22;3892;47.794;19.126;2023-02-27T05:05:29;9.90;26.10
7700;DHT22;3892;47.794;19.126;2023-02-27T05:08:02;9.90;26.60
7700;DHT22;3892;47.794;19.126;2023-02-27T05:10:35;9.90;26.50
7700;DHT22;3892;47.794;19.126;2023-02-27T05:13:05;9.90;26.40
7700;DHT22;3892;47.794;19.126;2023-02-27T05:15:39;9.90;26.20
7700;DHT22;3892;47.794;19.126;2023-02-27T05:18:09;9.90;26.30
7700;DHT22;3892;47.794;19.126;2023-02-27T05:20:47;9.80;26.30
7700;DHT22;3892;47.794;19.126;2023-02-27T05:23:21;9.70;26.30
7700;DHT22;3892;47.794;19.126;2023-02-27T05:25:54;9.70;26.40
7700;DHT22;3892;47.794;19.126;2023-02-27T05:28:31;9.70;26.60
7700;DHT22;3892;47.794;19.126;2023-02-27T05:31:06;9.80;26.50
7700;DHT22;3892;47.794;19.126;2023-02-27T05:33:37;9.90;26.50
7700;DHT22;3892;47.794;19.126;2023-02-27T05:36:11;9.80;26.50
7700;DHT22;3892;47.794;19.126;2023-02-27T05:38:42;9.80;26.60
7700;DHT22;3892;47.794;19.126;2023-02-27T05:41:15;9.80;26.60
7700;DHT22;3892;47.794;19.126;2023-02-27T05:43:46;9.90;26.60
7700;DHT22;3892;47.794;19.126;2023-02-27T05:46:19;9.90;26.80
7700;DHT22;3892;47.794;19.126;2023-02-27T05:48:51;9.90;26.50
7700;DHT22;3892;47.794;19.126;2023-02-27T05:51:20;9.90;26.50
7700;DHT22;3892;47.794;19.126;2023-02-27T05:53:53;10.00;25.90
7700;DHT22;3892;47.794;19.126;2023-02-27T05:56:25;9.90;26.60
7700;DHT22;3892;47.794;19.126;2023-02-27T05:58:59;10.00;25.70
7700;DHT22;3892;47.794;19.126;2023-02-27T06:01:30;10.00;25.50
7700;DHT22;3892;47.794;19.126;2023-02-27T06:03:57;10.00;25.60
7700;DHT22;3892;47.794;19.126;2023-02-27T06:06:24;10.00;25.50
7700;DHT22;3892;47.794;19.126;2023-02-27T06:08:51;10.00;25.40
7700;DHT22;3892;47.794;19.126;2023-02-27T06:11:18;10.00;25.30
7700;DHT22;3892;47.794;19.126;2023-02-27T06:13:45;10.00;25.30
7700;DHT22;3892;47.794;19.126;2023-02-27T06:16:13;10.00;25.30
7700;DHT22;3892;47.794;19.126;2023-02-27T06:18:43;10.10;25.40
7700;DHT22;3892;47.794;19.126;2023-02-27T06:21:10;10.10;25.30
7700;DHT22;3892;47.794;19.126;2023-02-27T06:23:38;10.10;25.10
7700;DHT22;3892;47.794;19.126;2023-02-27T06:26:05;10.10;25.00
7700;DHT22;3892;47.794;19.126;2023-02-27T06:28:32;10.10;25.20
7700;DHT22;3892;47.794;19.126;2023-02-27T06:30:59;10.10;25.40
7700;DHT22;3892;47.794;19.126;2023-02-27T06:33:26;10.10;25.50
7700;DHT22;3892;47.794;19.126;2023-02-27T06:35:54;10.10;25.40
7700;DHT22;3892;47.794;19.126;2023-02-27T06:38:21;10.10;25.60
7700;DHT22;3892;47.794;19.126;2023-02-27T06:40:49;10.20;25.50
7700;DHT22;3892;47.794;19.126;2023-02-27T06:43:16;10.20;25.40
7700;DHT22;3892;47.794;19.126;2023-02-27T06:45:43;10.20;25.20
7700;DHT22;3892;47.794;19.126;2023-02-27T06:48:10;10.20;25.10
7700;DHT22;3892;47.794;19.126;2023-02-27T06:50:39;10.20;25.30
7700;DHT22;3892;47.794;19.126;2023-02-27T06:53:08;10.20;25.10
7700;DHT22;3892;47.794;19.126;2023-02-27T06:55:35;10.20;25.20
7700;DHT22;3892;47.794;19.126;2023-02-27T06:58:03;10.20;24.90
7700;DHT22;3892;47.794;19.126;2023-02-27T07:00:30;10.10;24.90
7700;DHT22;3892;47.794;19.126;2023-02-27T07:02:57;10.10;25.00
7700;DHT22;3892;47.794;19.126;2023-02-27T07:05:25;9.90;24.40
7700;DHT22;3892;47.794;19.126;2023-02-27T07:07:52;10.00;24.10
7700;DHT22;3892;47.794;19.126;2023-02-27T07:10:20;10.00;24.00
7700;DHT22;3892;47.794;19.126;2023-02-27T07:12:47;10.00;24.10
7700;DHT22;3892;47.794;19.126;2023-02-27T07:15:14;10.00;24.00
7700;DHT22;3892;47.794;19.126;2023-02-27T07:17:42;10.00;24.00
7700;DHT22;3892;47.794;19.126;2023-02-27T07:20:10;10.10;23.60
7700;DHT22;3892;47.794;19.126;2023-02-27T07:22:39;10.20;23.70
7700;DHT22;3892;47.794;19.126;2023-02-27T07:25:08;10.20;23.40
7700;DHT22;3892;47.794;19.126;2023-02-27T07:27:36;10.30;23.40
7700;DHT22;3892;47.794;19.126;2023-02-27T07:30:04;10.30;24.00
7700;DHT22;3892;47.794;19.126;2023-02-27T07:32:31;10.30;24.80
7700;DHT22;3892;47.794;19.126;2023-02-27T07:34:59;10.40;25.10
7700;DHT22;3892;47.794;19.126;2023-02-27T07:37:26;10.40;25.20
7700;DHT22;3892;47.794;19.126;2023-02-27T07:39:53;10.50;25.00
7700;DHT22;3892;47.794;19.126;2023-02-27T07:42:20;10.50;24.60
7700;DHT22;3892;47.794;19.126;2023-02-27T07:44:49;10.60;24.50
7700;DHT22;3892;47.794;19.126;2023-02-27T07:47:16;10.60;24.60
7700;DHT22;3892;47.794;19.126;2023-02-27T07:49:43;10.60;24.70
7700;DHT22;3892;47.794;19.126;2023-02-27T07:52:10;10.60;24.60
7700;DHT22;3892;47.794;19.126;2023-02-27T07:54:37;10.70;24.80
7700;DHT22;3892;47.794;19.126;2023-02-27T07:57:05;10.70;24.90
7700;DHT22;3892;47.794;19.126;2023-02-27T07:59:32;10.70;24.60
7700;DHT22;3892;47.794;19.126;2023-02-27T08:02:00;10.80;24.70
7700;DHT22;3892;47.794;19.126;2023-02-27T08:04:27;10.80;24.60
7700;DHT22;3892;47.794;19.126;2023-02-27T08:06:54;10.80;24.60
7700;DHT22;3892;47.794;19.126;2023-02-27T08:09:22;10.90;24.60
7700;DHT22;3892;47.794;19.126;2023-02-27T08:11:49;10.90;24.60
7700;DHT22;3892;47.794;19.126;2023-02-27T08:14:16;10.90;24.50
7700;DHT22;3892;47.794;19.126;2023-02-27T08:16:43;11.00;24.50
7700;DHT22;3892;47.794;19.126;2023-02-27T08:19:13;11.00;24.50
7700;DHT22;3892;47.794;19.126;2023-02-27T08:21:40;11.00;24.10
7700;DHT22;3892;47.794;19.126;2023-02-27T08:24:07;11.00;24.00
7700;DHT22;3892;47.794;19.126;2023-02-27T08:26:35;11.00;24.20
7700;DHT22;3892;47.794;19.126;2023-02-27T08:29:02;11.10;24.30
7700;DHT22;3892;47.794;19.126;2023-02-27T08:31:29;11.10;24.30
7700;DHT22;3892;47.794;19.126;2023-02-27T08:33:56;11.30;24.30
7700;DHT22;3892;47.794;19.126;2023-02-27T08:36:25;11.30;24.20
7700;DHT22;3892;47.794;19.126;2023-02-27T08:38:51;11.30;24.20
7700;DHT22;3892;47.794;19.126;2023-02-27T08:41:19;11.30;23.50
7700;DHT22;3892;47.794;19.126;2023-02-27T08:43:47;11.30;23.50
7700;DHT22;3892;47.794;19.126;2023-02-27T08:46:14;11.40;23.60
7700;DHT22;3892;47.794;19.126;2023-02-27T08:48:41;11.50;23.60
7700;DHT22;3892;47.794;19.126;2023-02-27T08:51:08;11.50;23.50
7700;DHT22;3892;47.794;19.126;2023-02-27T08:53:37;11.50;23.30
7700;DHT22;3892;47.794;19.126;2023-02-27T08:56:04;11.50;23.30
7700;DHT22;3892;47.794;19.126;2023-02-27T08:58:31;11.40;23.50
7700;DHT22;3892;47.794;19.126;2023-02-27T09:01:00;11.50;23.60
7700;DHT22;3892;47.794;19.126;2023-02-27T09:03:27;11.50;23.60
7700;DHT22;3892;47.794;19.126;2023-02-27T09:05:55;11.60;23.60
7700;DHT22;3892;47.794;19.126;2023-02-27T09:08:22;11.50;23.30
7700;DHT22;3892;47.794;19.126;2023-02-27T09:10:55;11.40;22.50
7700;DHT22;3892;47.794;19.126;2023-02-27T09:13:22;11.30;22.60
7700;DHT22;3892;47.794;19.126;2023-02-27T09:15:49;11.00;22.50
7700;DHT22;3892;47.794;19.126;2023-02-27T09:18:16;10.90;23.00
7700;DHT22;3892;47.794;19.126;2023-02-27T09:20:43;11.00;23.20
7700;DHT22;3892;47.794;19.126;2023-02-27T09:23:11;11.10;23.20
7700;DHT22;3892;47.794;19.126;2023-02-27T09:25:37;11.20;23.60
7700;DHT22;3892;47.794;19.126;2023-02-27T09:28:06;11.30;25.30
7700;DHT22;3892;47.794;19.126;2023-02-27T09:30:33;11.50;25.10
7700;DHT22;3892;47.794;19.126;2023-02-27T09:33:00;11.60;24.50
7700;DHT22;3892;47.794;19.126;2023-02-27T09:35:27;11.70;24.40
7700;DHT22;3892;47.794;19.126;2023-02-27T09:37:56;11.90;24.80
7700;DHT22;3892;47.794;19.126;2023-02-27T09:40:25;12.00;24.20
7700;DHT22;3892;47.794;19.126;2023-02-27T09:42:55;12.00;23.40
7700;DHT22;3892;47.794;19.126;2023-02-27T09:45:26;11.90;22.80
7700;DHT22;3892;47.794;19.126;2023-02-27T09:47:57;12.10;23.50
7700;DHT22;3892;47.794;19.126;2023-02-27T09:50:33;12.20;23.80
7700;DHT22;3892;47.794;19.126;2023-02-27T09:53:02;12.30;23.40
7700;DHT22;3892;47.794;19.126;2023-02-27T09:55:32;12.40;23.70
7700;DHT22;3892;47.794;19.126;2023-02-27T09:58:04;12.30;22.60
7700;DHT22;3892;47.794;19.126;2023-02-27T10:00:47;12.30;22.60
7700;DHT22;3892;47.794;19.126;2023-02-27T10:03:34;12.40;23.00
7700;DHT22;3892;47.794;19.126;2023-02-27T10:06:22;12.30;22.00
7700;DHT22;3892;47.794;19.126;2023-02-27T10:08:58;12.20;21.80
7700;DHT22;3892;47.794;19.126;2023-02-27T10:11:34;12.10;22.10
7700;DHT22;3892;47.794;19.126;2023-02-27T10:14:09;12.20;22.60
7700;DHT22;3892;47.794;19.126;2023-02-27T10:16:41;12.30;22.70
7700;DHT22;3892;47.794;19.126;2023-02-27T10:19:14;12.20;22.40
7700;DHT22;3892;47.794;19.126;2023-02-27T10:21:43;12.40;23.00
7700;DHT22;3892;47.794;19.126;2023-02-27T10:24:23;12.50;22.60
7700;DHT22;3892;47.794;19.126;2023-02-27T10:26:53;12.60;22.50
7700;DHT22;3892;47.794;19.126;2023-02-27T10:29:27;12.70;22.40
7700;DHT22;3892;47.794;19.126;2023-02-27T10:32:01;12.80;22.70
7700;DHT22;3892;47.794;19.126;2023-02-27T10:34:30;12.80;22.40
7700;DHT22;3892;47.794;19.126;2023-02-27T10:37:00;12.90;22.70
7700;DHT22;3892;47.794;19.126;2023-02-27T10:39:28;13.00;22.50
7700;DHT22;3892;47.794;19.126;2023-02-27T10:42:01;13.10;22.60
7700;DHT22;3892;47.794;19.126;2023-02-27T10:44:29;13.20;23.00
7700;DHT22;3892;47.794;19.126;2023-02-27T10:46:58;13.40;22.90
7700;DHT22;3892;47.794;19.126;2023-02-27T10:49:25;13.50;22.70
7700;DHT22;3892;47.794;19.126;2023-02-27T10:52:08;13.40;22.60
7700;DHT22;3892;47.794;19.126;2023-02-27T10:54:35;13.30;22.60
7700;DHT22;3892;47.794;19.126;2023-02-27T10:57:05;13.20;22.40
7700;DHT22;3892;47.794;19.126;2023-02-27T10:59:35;13.10;22.80
7700;DHT22;3892;47.794;19.126;2023-02-27T11:02:18;13.00;23.20
7700;DHT22;3892;47.794;19.126;2023-02-27T11:04:48;13.00;23.80
7700;DHT22;3892;47.794;19.126;2023-02-27T11:07:27;13.10;24.20
7700;DHT22;3892;47.794;19.126;2023-02-27T11:10:02;13.30;23.90
7700;DHT22;3892;47.794;19.126;2023-02-27T11:12:31;13.50;23.30
7700;DHT22;3892;47.794;19.126;2023-02-27T11:15:01;13.70;22.90
7700;DHT22;3892;47.794;19.126;2023-02-27T11:17:31;13.80;22.80
7700;DHT22;3892;47.794;19.126;2023-02-27T11:20:00;14.00;23.00
7700;DHT22;3892;47.794;19.126;2023-02-27T11:22:31;14.10;23.10
7700;DHT22;3892;47.794;19.126;2023-02-27T11:25:18;14.30;22.80
7700;DHT22;3892;47.794;19.126;2023-02-27T11:27:46;14.40;22.80
7700;DHT22;3892;47.794;19.126;2023-02-27T11:30:24;14.50;22.90
7700;DHT22;3892;47.794;19.126;2023-02-27T11:32:55;14.60;22.70
7700;DHT22;3892;47.794;19.126;2023-02-27T11:35:25;14.50;22.30
7700;DHT22;3892;47.794;19.126;2023-02-27T11:37:55;14.50;22.30
7700;DHT22;3892;47.794;19.126;2023-02-27T11:40:26;14.50;22.50
7700;DHT22;3892;47.794;19.126;2023-02-27T11:42:59;14.50;22.70
7700;DHT22;3892;47.794;19.126;2023-02-27T11:45:30;14.50;22.70
7700;DHT22;3892;47.794;19.126;2023-02-27T11:48:05;14.50;22.70
7700;DHT22;3892;47.794;19.126;2023-02-27T11:50:46;14.50;22.30
7700;DHT22;3892;47.794;19.126;2023-02-27T11:53:33;14.60;22.20
7700;DHT22;3892;47.794;19.126;2023-02-27T11:56:09;14.80;22.50
7700;DHT22;3892;47.794;19.126;2023-02-27T11:58:42;14.90;22.20
7700;DHT22;3892;47.794;19.126;2023-02-27T12:01:17;15.10;22.00
7700;DHT22;3892;47.794;19.126;2023-02-27T12:03:51;15.30;21.40
7700;DHT22;3892;47.794;19.126;2023-02-27T12:06:25;15.60;21.80
7700;DHT22;3892;47.794;19.126;2023-02-27T12:08:57;16.00;21.80
7700;DHT22;3892;47.794;19.126;2023-02-27T12:11:29;16.40;21.50
7700;DHT22;3892;47.794;19.126;2023-02-27T12:14:03;16.60;21.70
7700;DHT22;3892;47.794;19.126;2023-02-27T12:16:37;16.80;21.40
7700;DHT22;3892;47.794;19.126;2023-02-27T12:19:14;16.80;21.30
7700;DHT22;3892;47.794;19.126;2023-02-27T12:21:44;16.60;21.30
7700;DHT22;3892;47.794;19.126;2023-02-27T12:24:17;16.40;21.60
7700;DHT22;3892;47.794;19.126;2023-02-27T12:26:47;16.20;21.80
7700;DHT22;3892;47.794;19.126;2023-02-27T12:29:21;16.00;21.80
7700;DHT22;3892;47.794;19.126;2023-02-27T12:31:52;15.80;21.20
7700;DHT22;3892;47.794;19.126;2023-02-27T12:34:34;15.50;21.00
7700;DHT22;3892;47.794;19.126;2023-02-27T12:37:09;15.30;21.40
7700;DHT22;3892;47.794;19.126;2023-02-27T12:39:38;15.20;21.50
7700;DHT22;3892;47.794;19.126;2023-02-27T12:42:27;15.20;21.50
7700;DHT22;3892;47.794;19.126;2023-02-27T12:45:21;15.20;22.00
7700;DHT22;3892;47.794;19.126;2023-02-27T12:47:57;15.20;21.60
7700;DHT22;3892;47.794;19.126;2023-02-27T12:50:38;15.10;21.40
7700;DHT22;3892;47.794;19.126;2023-02-27T12:53:22;15.20;21.50
7700;DHT22;3892;47.794;19.126;2023-02-27T12:55:58;15.10;21.40
7700;DHT22;3892;47.794;19.126;2023-02-27T12:58:36;15.10;21.40
7700;DHT22;3892;47.794;19.126;2023-02-27T13:01:12;14.90;21.10
7700;DHT22;3892;47.794;19.126;2023-02-27T13:03:48;14.80;21.30
7700;DHT22;3892;47.794;19.126;2023-02-27T13:06:21;14.60;21.70
7700;DHT22;3892;47.794;19.126;2023-02-27T13:09:04;14.60;21.70
7700;DHT22;3892;47.794;19.126;2023-02-27T13:11:43;14.70;21.90
7700;DHT22;3892;47.794;19.126;2023-02-27T13:14:24;14.80;21.80
7700;DHT22;3892;47.794;19.126;2023-02-27T13:16:57;15.00;21.80
7700;DHT22;3892;47.794;19.126;2023-02-27T13:19:30;15.00;22.00
7700;DHT22;3892;47.794;19.126;2023-02-27T13:22:06;14.90;21.40
7700;DHT22;3892;47.794;19.126;2023-02-27T13:24:42;14.90;21.70
7700;DHT22;3892;47.794;19.126;2023-02-27T13:27:17;14.90;21.50
7700;DHT22;3892;47.794;19.126;2023-02-27T13:29:54;14.70;21.00
7700;DHT22;3892;47.794;19.126;2023-02-27T13:32:30;14.60;21.10
7700;DHT22;3892;47.794;19.126;2023-02-27T13:35:05;14.50;21.30
7700;DHT22;3892;47.794;19.126;2023-02-27T13:37:52;14.50;22.00
7700;DHT22;3892;47.794;19.126;2023-02-27T13:40:35;14.70;22.20
7700;DHT22;3892;47.794;19.126;2023-02-27T13:43:32;14.90;21.80
7700;DHT22;3892;47.794;19.126;2023-02-27T13:45:55;14.80;21.00
7700;DHT22;3892;47.794;19.126;2023-02-27T13:48:48;14.80;21.20
7700;DHT22;3892;47.794;19.126;2023-02-27T13:51:45;14.60;21.20
7700;DHT22;3892;47.794;19.126;2023-02-27T13:54:24;14.50;21.00
7700;DHT22;3892;47.794;19.126;2023-02-27T14:00:00;14.60;21.80
7700;DHT22;3892;47.794;19.126;2023-02-27T14:02:42;14.50;21.40
7700;DHT22;3892;47.794;19.126;2023-02-27T14:05:13;14.10;20.80
7700;DHT22;3892;47.794;19.126;2023-02-27T14:08:02;14.10;21.40
7700;DHT22;3892;47.794;19.126;2023-02-27T14:10:32;14.10;21.90
7700;DHT22;3892;47.794;19.126;2023-02-27T14:13:02;14.20;22.20
7700;DHT22;3892;47.794;19.126;2023-02-27T14:15:49;14.40;22.00
7700;DHT22;3892;47.794;19.126;2023-02-27T14:18:49;14.40;21.70
7700;DHT22;3892;47.794;19.126;2023-02-27T14:21:51;14.50;21.50
7700;DHT22;3892;47.794;19.126;2023-02-27T14:24:21;14.60;21.70
7700;DHT22;3892;47.794;19.126;2023-02-27T14:26:52;14.60;22.00
7700;DHT22;3892;47.794;19.126;2023-02-27T14:29:22;14.70;22.20
7700;DHT22;3892;47.794;19.126;2023-02-27T14:31:50;14.50;21.40
7700;DHT22;3892;47.794;19.126;2023-02-27T14:34:20;14.50;21.80
7700;DHT22;3892;47.794;19.126;2023-02-27T14:36:51;14.50;21.70
7700;DHT22;3892;47.794;19.126;2023-02-27T14:39:20;14.50;21.40
7700;DHT22;3892;47.794;19.126;2023-02-27T14:41:58;14.50;21.30
7700;DHT22;3892;47.794;19.126;2023-02-27T14:44:36;14.60;21.60
7700;DHT22;3892;47.794;19.126;2023-02-27T14:47:14;14.60;21.50
7700;DHT22;3892;47.794;19.126;2023-02-27T14:49:45;14.50;21.50
7700;DHT22;3892;47.794;19.126;2023-02-27T14:52:17;14.50;21.70
7700;DHT22;3892;47.794;19.126;2023-02-27T14:54:45;14.50;21.90
7700;DHT22;3892;47.794;19.126;2023-02-27T14:57:19;14.50;22.00
7700;DHT22;3892;47.794;19.126;2023-02-27T14:59:48;14.40;22.10
7700;DHT22;3892;47.794;19.126;2023-02-27T15:02:20;14.40;22.20
7700;DHT22;3892;47.794;19.126;2023-02-27T15:04:52;14.40;22.00
7700;DHT22;3892;47.794;19.126;2023-02-27T15:07:21;14.40;22.00
7700;DHT22;3892;47.794;19.126;2023-02-27T15:09:54;14.40;22.20
7700;DHT22;3892;47.794;19.126;2023-02-27T15:12:24;14.50;22.20
7700;DHT22;3892;47.794;19.126;2023-02-27T15:14:53;14.60;22.20
7700;DHT22;3892;47.794;19.126;2023-02-27T15:17:24;14.60;21.80
7700;DHT22;3892;47.794;19.126;2023-02-27T15:19:53;14.70;22.10
7700;DHT22;3892;47.794;19.126;2023-02-27T15:22:23;14.80;22.10
7700;DHT22;3892;47.794;19.126;2023-02-27T15:24:52;14.90;21.80
7700;DHT22;3892;47.794;19.126;2023-02-27T15:27:23;14.80;21.50
7700;DHT22;3892;47.794;19.126;2023-02-27T15:29:53;14.70;21.20
7700;DHT22;3892;47.794;19.126;2023-02-27T15:32:26;14.70;21.80
7700;DHT22;3892;47.794;19.126;2023-02-27T15:34:54;14.60;21.80
7700;DHT22;3892;47.794;19.126;2023-02-27T15:37:23;14.60;21.70
7700;DHT22;3892;47.794;19.126;2023-02-27T15:39:52;14.50;21.60
7700;DHT22;3892;47.794;19.126;2023-02-27T15:42:24;14.40;22.00
7700;DHT22;3892;47.794;19.126;2023-02-27T15:44:52;14.40;22.10
7700;DHT22;3892;47.794;19.126;2023-02-27T15:47:23;14.30;22.10
7700;DHT22;3892;47.794;19.126;2023-02-27T15:49:55;14.30;21.90
7700;DHT22;3892;47.794;19.126;2023-02-27T15:52:25;14.20;21.70
7700;DHT22;3892;47.794;19.126;2023-02-27T15:54:58;14.10;22.10
7700;DHT22;3892;47.794;19.126;2023-02-27T15:57:27;14.00;21.90
7700;DHT22;3892;47.794;19.126;2023-02-27T15:59:56;14.00;22.10
7700;DHT22;3892;47.794;19.126;2023-02-27T16:02:27;13.90;22.00
7700;DHT22;3892;47.794;19.126;2023-02-27T16:04:56;13.90;22.20
7700;DHT22;3892;47.794;19.126;2023-02-27T16:07:24;13.90;22.10
7700;DHT22;3892;47.794;19.126;2023-02-27T16:09:53;13.90;22.20
7700;DHT22;3892;47.794;19.126;2023-02-27T16:12:28;13.90;22.20
7700;DHT22;3892;47.794;19.126;2023-02-27T16:15:21;13.90;22.10
7700;DHT22;3892;47.794;19.126;2023-02-27T16:17:53;13.80;22.40
7700;DHT22;3892;47.794;19.126;2023-02-27T16:20:30;13.90;22.70
7700;DHT22;3892;47.794;19.126;2023-02-27T16:23:02;13.80;22.70
7700;DHT22;3892;47.794;19.126;2023-02-27T16:25:30;13.70;22.90
7700;DHT22;3892;47.794;19.126;2023-02-27T16:28:00;13.60;23.00
7700;DHT22;3892;47.794;19.126;2023-02-27T16:30:27;13.60;22.90